createdAt,value
2022-10-31T00:02:41.372Z,37.50
2022-10-31T00:07:44.297Z,44.10
2022-10-31T00:12:47.099Z,30.90
2022-10-31T00:17:49.830Z,38.20
2022-10-31T00:22:52.614Z,26.10
2022-10-31T00:27:56.184Z,35.70
2022-10-31T00:33:00.198Z,30.00
2022-10-31T00:38:03.290Z,32.40
2022-10-31T00:43:06.100Z,32.80
2022-10-31T00:48:09.742Z,39.50
2022-10-31T00:53:12.560Z,38.30
2022-10-31T00:58:15.850Z,40.60
2022-10-31T01:03:18.917Z,55.80
2022-10-31T01:08:21.683Z,45.40
2022-10-31T01:13:24.552Z,40.80
2022-10-31T01:18:28.973Z,47.00
2022-10-31T01:23:32.824Z,42.80
2022-10-31T01:28:46.230Z,37.20
2022-10-31T01:33:50.164Z,43.10
2022-10-31T01:38:57.334Z,36.30
2022-10-31T01:44:20.348Z,38.60
2022-10-31T01:49:34.374Z,36.80
2022-10-31T01:54:46.834Z,34.10
2022-10-31T01:59:56.174Z,40.20
2022-10-31T02:05:05.545Z,38.40
2022-10-31T02:10:08.732Z,36.40
2022-10-31T02:15:11.900Z,32.80
2022-10-31T02:20:22.115Z,32.50
2022-10-31T02:25:24.908Z,27.60
2022-10-31T02:30:48.895Z,26.80
2022-10-31T02:36:35.449Z,32.00
2022-10-31T02:42:02.383Z,27.40
2022-10-31T02:47:17.708Z,23.90
2022-10-31T02:52:33.530Z,24.60
2022-10-31T02:57:38.560Z,29.70
2022-10-31T03:03:30.843Z,27.90
2022-10-31T03:08:48.087Z,22.50
2022-10-31T03:14:18.944Z,27.30
2022-10-31T03:19:29.829Z,23.20
2022-10-31T03:24:39.383Z,31.50
2022-10-31T03:29:45.573Z,21.50
2022-10-31T03:34:50.823Z,24.20
2022-10-31T03:39:58.195Z,20.40
2022-10-31T03:45:14.638Z,23.50
2022-10-31T03:50:18.552Z,22.40
2022-10-31T03:56:01.923Z,25.10
2022-10-31T04:01:10.572Z,19.70
2022-10-31T04:06:17.736Z,16.00
2022-10-31T04:11:29.678Z,25.80
2022-10-31T04:16:32.969Z,16.80
2022-10-31T04:21:35.731Z,30.10
2022-10-31T04:26:38.648Z,17.50
2022-10-31T04:31:41.383Z,24.70
2022-10-31T04:36:44.153Z,14.10
2022-10-31T04:41:46.946Z,15.10
2022-10-31T04:46:49.834Z,23.00
2022-10-31T04:51:52.622Z,17.40
2022-10-31T04:56:55.399Z,21.90
2022-10-31T05:01:58.283Z,16.60
2022-10-31T05:07:01.124Z,16.40
2022-10-31T05:12:04.554Z,16.30
2022-10-31T05:17:07.459Z,16.70
2022-10-31T05:22:10.275Z,15.10
2022-10-31T05:27:13.052Z,17.30
2022-10-31T05:32:15.982Z,19.70
2022-10-31T05:37:18.729Z,22.90
2022-10-31T05:42:21.523Z,22.80
2022-10-31T05:47:25.151Z,22.00
2022-10-31T05:52:28.029Z,26.30
2022-10-31T05:57:35.033Z,23.60
2022-10-31T06:02:37.833Z,22.60
2022-10-31T06:07:40.968Z,21.60
2022-10-31T06:12:43.728Z,24.00
2022-10-31T06:17:46.490Z,23.20
2022-10-31T06:22:49.330Z,26.30
2022-10-31T06:27:52.134Z,24.10
2022-10-31T06:32:54.988Z,22.00
2022-10-31T06:37:57.861Z,22.10
2022-10-31T06:43:02.436Z,22.60
2022-10-31T06:48:22.181Z,18.40
2022-10-31T06:53:25.425Z,18.20
2022-10-31T06:58:28.263Z,17.20
2022-10-31T07:03:31.059Z,14.10
2022-10-31T07:08:33.858Z,15.30
2022-10-31T07:13:36.793Z,15.30
2022-10-31T07:18:39.736Z,16.10
2022-10-31T07:23:42.680Z,14.90
2022-10-31T07:28:48.587Z,13.00
2022-10-31T07:33:51.753Z,14.80
2022-10-31T07:38:54.657Z,16.10
2022-10-31T07:43:57.486Z,18.20
2022-10-31T07:49:00.358Z,17.80
2022-10-31T07:54:03.278Z,15.40
2022-10-31T07:59:06.061Z,18.20
2022-10-31T08:04:08.852Z,15.20
2022-10-31T08:09:11.769Z,12.90
2022-10-31T08:14:14.561Z,19.30
2022-10-31T08:19:17.437Z,15.60
2022-10-31T08:24:20.345Z,14.50
2022-10-31T08:29:23.177Z,11.90
2022-10-31T08:34:26.593Z,16.80
2022-10-31T08:39:29.625Z,16.40
2022-10-31T08:44:32.421Z,14.80
2022-10-31T08:49:35.303Z,14.50
2022-10-31T08:54:38.238Z,19.70
2022-10-31T08:59:41.034Z,13.80
2022-10-31T09:04:43.833Z,18.50
2022-10-31T09:09:46.914Z,21.50
2022-10-31T09:14:49.691Z,20.80
2022-10-31T09:19:52.465Z,17.20
2022-10-31T09:24:55.273Z,20.90
2022-10-31T09:29:58.108Z,16.20
2022-10-31T09:35:01.474Z,21.70
2022-10-31T09:40:05.877Z,19.90
2022-10-31T09:45:33.892Z,19.30
2022-10-31T09:51:11.024Z,19.10
2022-10-31T09:56:22.106Z,16.20
2022-10-31T10:01:48.798Z,18.80
2022-10-31T10:06:53.243Z,16.50
2022-10-31T10:12:40.893Z,17.20
2022-10-31T10:18:14.402Z,14.20
2022-10-31T10:23:54.951Z,15.50
2022-10-31T10:29:12.581Z,20.00
2022-10-31T10:34:41.447Z,13.60
2022-10-31T10:39:56.852Z,14.70
2022-10-31T10:45:24.964Z,16.80
2022-10-31T10:50:37.151Z,20.30
2022-10-31T10:55:54.052Z,18.30
2022-10-31T11:00:57.336Z,25.10
2022-10-31T11:06:02.257Z,59.30
2022-10-31T11:11:33.027Z,195.10
2022-10-31T11:16:50.253Z,46.20
2022-10-31T11:21:54.212Z,27.70
2022-10-31T11:27:25.116Z,28.00
2022-10-31T11:32:30.820Z,29.60
2022-10-31T11:37:41.116Z,67.00
2022-10-31T11:42:44.925Z,194.40
2022-10-31T11:47:56.663Z,116.80
2022-10-31T11:53:02.690Z,214.90
2022-10-31T11:58:20.445Z,157.40
2022-10-31T12:03:23.265Z,85.80
2022-10-31T12:08:37.421Z,117.60
2022-10-31T12:13:45.430Z,48.20
2022-10-31T12:19:01.932Z,24.70
2022-10-31T12:24:14.505Z,22.00
2022-10-31T12:29:48.584Z,32.30
2022-10-31T12:35:24.850Z,24.20
2022-10-31T12:40:41.334Z,18.80
2022-10-31T12:46:00.309Z,29.40
2022-10-31T12:51:06.115Z,21.80
2022-10-31T12:56:09.072Z,24.40
2022-10-31T13:01:40.094Z,26.80
2022-10-31T13:06:59.597Z,29.70
2022-10-31T13:12:12.886Z,24.30
2022-10-31T13:17:45.237Z,22.50
2022-10-31T13:22:54.140Z,26.70
2022-10-31T13:28:24.301Z,19.20
2022-10-31T13:33:48.658Z,20.20
2022-10-31T13:39:16.241Z,21.00
2022-10-31T13:44:26.093Z,21.60
2022-10-31T13:49:31.987Z,24.10
2022-10-31T13:54:37.891Z,20.30
2022-10-31T13:59:47.605Z,21.70
2022-10-31T14:04:57.898Z,20.30
2022-10-31T14:10:09.251Z,21.30
2022-10-31T14:15:28.888Z,24.40
2022-10-31T14:20:42.500Z,25.60
2022-10-31T14:25:45.822Z,27.00
2022-10-31T14:30:58.859Z,34.10
2022-10-31T14:36:26.354Z,23.60
2022-10-31T14:42:10.633Z,33.80
2022-10-31T14:47:33.493Z,43.70
2022-10-31T14:52:39.478Z,20.60
2022-10-31T14:57:55.380Z,55.00
2022-10-31T15:03:17.928Z,57.00
2022-10-31T15:08:53.377Z,113.40
2022-10-31T15:14:03.329Z,84.60
2022-10-31T15:19:13.426Z,44.70
2022-10-31T15:24:19.782Z,72.50
2022-10-31T15:29:27.901Z,38.80
2022-10-31T15:34:41.081Z,63.50
2022-10-31T15:39:45.822Z,62.90
2022-10-31T15:45:19.697Z,34.30
2022-10-31T15:50:42.033Z,31.80
2022-10-31T15:55:54.496Z,36.80
2022-10-31T16:01:06.372Z,33.90
2022-10-31T16:06:22.290Z,41.50
2022-10-31T16:11:35.276Z,37.50
2022-10-31T16:16:50.602Z,29.40
2022-10-31T16:22:04.885Z,28.10
2022-10-31T16:27:30.048Z,45.30
2022-10-31T16:32:52.658Z,49.70
2022-10-31T16:37:55.824Z,78.40
2022-10-31T16:43:01.588Z,87.30
2022-10-31T16:48:10.843Z,38.20
2022-10-31T16:53:18.626Z,69.60
2022-10-31T16:58:30.747Z,169.00
2022-10-31T17:03:34.143Z,151.80
2022-10-31T17:08:37.445Z,95.70
2022-10-31T17:13:40.691Z,76.40
2022-10-31T17:18:43.975Z,97.80
2022-10-31T17:23:58.031Z,65.30
2022-10-31T17:29:04.038Z,54.40
2022-10-31T17:34:08.963Z,37.60
2022-10-31T17:39:11.931Z,29.10
2022-10-31T17:44:14.758Z,36.10
2022-10-31T17:49:17.599Z,34.30
2022-10-31T17:54:22.933Z,42.50
2022-10-31T17:59:27.762Z,40.10
2022-10-31T18:04:30.563Z,41.50
2022-10-31T18:09:34.298Z,86.20
2022-10-31T18:14:37.123Z,51.80
2022-10-31T18:19:39.948Z,44.20
2022-10-31T18:24:43.151Z,141.80
2022-10-31T18:29:46.636Z,95.90
2022-10-31T18:34:49.537Z,59.00
2022-10-31T18:39:52.490Z,105.10
2022-10-31T18:44:56.258Z,167.70
2022-10-31T18:49:59.190Z,66.80
2022-10-31T18:55:02.026Z,98.50
2022-10-31T19:00:06.925Z,57.20
2022-10-31T19:05:09.883Z,77.00
2022-10-31T19:10:13.036Z,66.30
2022-10-31T19:15:16.039Z,70.80
2022-10-31T19:20:18.995Z,102.30
2022-10-31T19:25:22.121Z,64.00
2022-10-31T19:30:25.035Z,67.60
2022-10-31T19:35:27.994Z,92.30
2022-10-31T19:40:30.961Z,71.70
2022-10-31T19:45:33.920Z,93.20
2022-10-31T19:50:36.785Z,95.10
2022-10-31T19:55:41.339Z,92.10
2022-10-31T20:00:44.301Z,73.20
2022-10-31T20:05:47.573Z,74.70
2022-10-31T20:10:59.475Z,69.60
2022-10-31T20:16:07.164Z,79.10
2022-10-31T20:21:14.450Z,77.40
2022-10-31T20:26:19.890Z,67.60
2022-10-31T20:31:36.035Z,76.70
2022-10-31T20:36:38.974Z,72.70
2022-10-31T20:41:41.920Z,81.40
2022-10-31T20:46:44.758Z,72.80
2022-10-31T20:51:47.832Z,67.10
2022-10-31T20:56:50.760Z,68.70
2022-10-31T21:01:53.831Z,62.00
2022-10-31T21:06:56.874Z,69.80
2022-10-31T21:11:59.867Z,64.40
2022-10-31T21:17:05.135Z,76.00
2022-10-31T21:22:08.081Z,71.50
2022-10-31T21:27:12.511Z,73.90
2022-10-31T21:32:15.688Z,63.50
2022-10-31T21:37:18.616Z,61.60
2022-10-31T21:42:23.305Z,62.40
2022-10-31T21:47:26.304Z,64.10
2022-10-31T21:52:29.200Z,61.50
2022-10-31T21:57:33.004Z,71.00
2022-10-31T22:02:37.335Z,64.50
2022-10-31T22:07:40.324Z,58.60
2022-10-31T22:12:44.166Z,56.70
2022-10-31T22:17:47.001Z,49.40
2022-10-31T22:22:51.079Z,72.10
2022-10-31T22:27:53.940Z,49.70
2022-10-31T22:32:56.764Z,37.90
2022-10-31T22:37:59.625Z,27.30
2022-10-31T22:43:02.765Z,25.80
2022-10-31T22:48:06.447Z,25.10
2022-10-31T22:53:09.286Z,24.20
2022-10-31T22:58:12.254Z,24.30
2022-10-31T23:03:15.181Z,21.00
2022-10-31T23:08:18.015Z,22.00
2022-10-31T23:13:39.458Z,24.00
2022-10-31T23:18:50.154Z,23.40
2022-10-31T23:23:53.632Z,18.30
2022-10-31T23:28:56.528Z,23.00
2022-10-31T23:33:59.338Z,22.70
2022-10-31T23:39:04.888Z,22.70
2022-10-31T23:44:07.861Z,20.20
2022-10-31T23:49:11.568Z,23.30
2022-10-31T23:54:14.644Z,20.40
2022-10-31T23:59:18.194Z,20.20
